createdAt,value
2019-04-20T00:01:03.652Z,65.40
2019-04-20T00:03:37.961Z,65.40
2019-04-20T00:06:03.519Z,65.30
2019-04-20T00:08:36.100Z,65.30
2019-04-20T00:11:10.975Z,65.00
2019-04-20T00:13:45.638Z,65.00
2019-04-20T00:16:04.432Z,65.10
2019-04-20T00:18:41.095Z,65.30
2019-04-20T00:21:22.540Z,65.60
2019-04-20T00:23:54.749Z,65.40
2019-04-20T00:27:00.670Z,65.60
2019-04-20T00:29:18.704Z,65.60
2019-04-20T00:31:43.063Z,65.50
2019-04-20T00:34:09.211Z,65.50
2019-04-20T00:36:30.783Z,65.20
2019-04-20T00:39:04.060Z,65.40
2019-04-20T00:41:34.074Z,65.00
2019-04-20T00:44:06.921Z,65.20
2019-04-20T00:46:41.958Z,65.00
2019-04-20T00:49:24.281Z,65.00
2019-04-20T00:51:52.711Z,65.40
2019-04-20T00:54:05.650Z,65.10
2019-04-20T00:56:35.131Z,65.80
2019-04-20T00:59:19.349Z,65.70
2019-04-20T01:01:52.348Z,65.70
2019-04-20T01:04:27.233Z,65.80
2019-04-20T01:07:10.996Z,65.90
2019-04-20T01:09:43.931Z,66.20
2019-04-20T01:12:19.260Z,66.30
2019-04-20T01:14:51.421Z,66.50
2019-04-20T01:17:14.133Z,66.70
2019-04-20T01:19:43.080Z,67.20
2019-04-20T01:22:16.548Z,67.40
2019-04-20T01:24:45.382Z,68.20
2019-04-20T01:27:29.840Z,67.80
2019-04-20T01:29:50.804Z,67.80
2019-04-20T01:32:23.239Z,68.10
2019-04-20T01:34:55.221Z,69.20
2019-04-20T01:37:29.736Z,70.40
2019-04-20T01:39:52.012Z,70.40
2019-04-20T01:42:17.242Z,71.00
2019-04-20T01:44:50.113Z,71.60
2019-04-20T01:47:17.124Z,73.20
2019-04-20T01:49:49.715Z,73.90
2019-04-20T01:52:25.567Z,75.30
2019-04-20T01:55:23.016Z,77.10
2019-04-20T01:58:02.030Z,76.00
2019-04-20T02:00:35.264Z,77.00
2019-04-20T02:03:23.471Z,79.20
2019-04-20T02:05:56.500Z,79.90
2019-04-20T02:08:22.954Z,80.80
2019-04-20T02:10:55.534Z,82.20
2019-04-20T02:13:21.540Z,83.90
2019-04-20T02:15:55.628Z,84.30
2019-04-20T02:18:32.705Z,84.90
2019-04-20T02:21:13.595Z,86.80
2019-04-20T02:23:34.723Z,88.00
2019-04-20T02:25:54.187Z,88.80
2019-04-20T02:28:44.308Z,88.10
2019-04-20T02:31:32.674Z,89.50
2019-04-20T02:36:51.423Z,90.40
2019-04-20T02:39:21.950Z,91.10
2019-04-20T02:41:47.749Z,91.50
2019-04-20T02:44:17.993Z,92.10
2019-04-20T02:46:49.607Z,92.10
2019-04-20T02:49:19.731Z,92.50
2019-04-20T02:51:46.887Z,92.20
2019-04-20T02:54:15.055Z,92.30
2019-04-20T02:56:48.382Z,92.80
2019-04-20T02:59:42.611Z,93.10
2019-04-20T03:01:43.466Z,93.20
2019-04-20T03:03:56.593Z,93.10
2019-04-20T03:06:33.568Z,93.30
2019-04-20T03:09:17.257Z,93.80
2019-04-20T03:11:52.934Z,94.10
2019-04-20T03:14:10.894Z,93.90
2019-04-20T03:16:43.727Z,94.20
2019-04-20T03:19:11.772Z,94.70
2019-04-20T03:21:52.564Z,94.90
2019-04-20T03:24:28.242Z,94.70
2019-04-20T03:26:56.871Z,95.40
2019-04-20T03:29:49.586Z,95.60
2019-04-20T03:32:56.436Z,96.20
2019-04-20T03:37:30.677Z,97.00
2019-04-20T03:39:47.674Z,97.40
2019-04-20T03:42:07.166Z,97.90
2019-04-20T03:44:37.959Z,98.50
2019-04-20T03:47:10.292Z,98.90
2019-04-20T03:49:59.633Z,99.00
2019-04-20T03:52:44.962Z,98.80
2019-04-20T03:55:39.736Z,98.60
2019-04-20T03:58:19.802Z,98.50
2019-04-20T04:01:19.843Z,98.60
2019-04-20T04:04:13.144Z,98.80
2019-04-20T04:06:33.055Z,99.00
2019-04-20T04:09:02.792Z,99.10
2019-04-20T04:11:35.445Z,99.10
2019-04-20T04:13:52.746Z,99.20
2019-04-20T04:16:22.692Z,99.30
2019-04-20T04:19:01.602Z,99.70
2019-04-20T04:21:41.709Z,99.90
2019-04-20T04:24:07.326Z,99.90
2019-04-20T04:26:39.394Z,99.90
2019-04-20T04:29:23.070Z,99.90
2019-04-20T04:31:52.095Z,99.90
2019-04-20T04:34:12.493Z,99.60
2019-04-20T04:36:51.106Z,99.90
2019-04-20T04:39:21.155Z,99.90
2019-04-20T04:41:50.995Z,99.90
2019-04-20T04:44:14.594Z,99.90
2019-04-20T04:46:33.852Z,99.60
2019-04-20T04:49:09.588Z,99.50
2019-04-20T04:51:42.440Z,99.50
2019-04-20T04:54:13.803Z,99.40
2019-04-20T04:56:33.685Z,99.50
2019-04-20T04:59:02.660Z,99.80
2019-04-20T05:01:33.637Z,99.50
2019-04-20T05:04:22.829Z,99.80
2019-04-20T05:06:52.252Z,99.70
2019-04-20T05:09:05.870Z,99.30
2019-04-20T05:11:34.996Z,99.50
2019-04-20T05:14:10.048Z,99.30
2019-04-20T05:16:50.005Z,99.30
2019-04-20T05:19:44.309Z,99.10
2019-04-20T05:22:04.041Z,98.90
2019-04-20T05:24:34.852Z,99.00
2019-04-20T05:27:30.063Z,98.80
2019-04-20T05:29:42.302Z,98.60
2019-04-20T05:32:16.398Z,98.60
2019-04-20T05:35:05.019Z,98.70
2019-04-20T05:37:57.375Z,98.40
2019-04-20T05:40:06.200Z,98.40
2019-04-20T05:42:35.896Z,98.40
2019-04-20T05:45:01.849Z,98.20
2019-04-20T05:47:36.192Z,98.10
2019-04-20T05:50:01.266Z,98.00
2019-04-20T05:52:46.694Z,98.10
2019-04-20T05:55:10.245Z,98.00
2019-04-20T05:57:42.691Z,97.80
2019-04-20T06:00:15.855Z,97.60
2019-04-20T06:02:45.150Z,97.70
2019-04-20T06:05:19.308Z,97.80
2019-04-20T06:07:45.736Z,97.90
2019-04-20T06:10:20.778Z,98.10
2019-04-20T06:12:45.528Z,97.60
2019-04-20T06:15:19.918Z,97.60
2019-04-20T06:18:20.187Z,97.40
2019-04-20T06:20:59.510Z,97.30
2019-04-20T06:23:50.854Z,97.10
2019-04-20T06:26:26.700Z,97.10
2019-04-20T06:28:41.539Z,97.20
2019-04-20T06:31:17.988Z,97.20
2019-04-20T06:36:49.876Z,96.40
2019-04-20T06:44:30.296Z,96.20
2019-04-20T06:49:29.165Z,95.50
2019-04-20T06:52:23.128Z,95.60
2019-04-20T06:55:03.348Z,95.40
2019-04-20T06:57:38.036Z,95.40
2019-04-20T07:00:08.562Z,95.20
2019-04-20T07:02:41.704Z,95.30
2019-04-20T07:07:40.395Z,95.00
2019-04-20T07:10:13.318Z,94.90
2019-04-20T07:12:37.898Z,94.60
2019-04-20T07:15:01.797Z,94.60
2019-04-20T07:18:06.160Z,94.50
2019-04-20T07:20:55.615Z,93.40
2019-04-20T07:23:29.256Z,93.50
2019-04-20T07:26:04.900Z,92.20
2019-04-20T07:28:25.839Z,90.40
2019-04-20T07:30:50.839Z,90.50
2019-04-20T07:33:24.585Z,88.50
2019-04-20T07:35:50.480Z,87.10
2019-04-20T07:38:40.465Z,86.00
2019-04-20T07:40:53.733Z,86.00
2019-04-20T07:43:25.553Z,87.50
2019-04-20T07:45:55.874Z,86.80
2019-04-20T07:48:26.182Z,85.90
2019-04-20T07:50:48.572Z,85.90
2019-04-20T07:53:22.862Z,85.90
2019-04-20T07:56:00.558Z,84.10
2019-04-20T07:58:19.780Z,84.60
2019-04-20T08:01:09.063Z,84.90
2019-04-20T08:03:42.576Z,84.90
2019-04-20T08:06:19.750Z,88.00
2019-04-20T08:08:57.230Z,87.40
2019-04-20T08:11:41.331Z,86.70
2019-04-20T08:14:13.330Z,88.40
2019-04-20T08:19:09.979Z,88.90
2019-04-20T08:21:47.475Z,88.00
2019-04-20T08:24:15.449Z,89.00
2019-04-20T08:26:31.060Z,89.20
2019-04-20T08:29:14.344Z,89.20
2019-04-20T08:32:10.355Z,90.00
2019-04-20T08:34:41.681Z,90.10
2019-04-20T08:37:06.985Z,90.00
2019-04-20T08:42:13.319Z,87.90
2019-04-20T08:47:22.068Z,86.70
2019-04-20T08:50:13.719Z,88.30
2019-04-20T08:52:58.675Z,87.30
2019-04-20T08:55:04.974Z,87.10
2019-04-20T08:57:20.196Z,88.00
2019-04-20T08:59:51.101Z,86.40
2019-04-20T09:02:20.692Z,85.70
2019-04-20T09:04:58.288Z,86.10
2019-04-20T09:07:26.347Z,86.30
2019-04-20T09:12:43.641Z,86.40
2019-04-20T09:14:53.070Z,84.90
2019-04-20T09:17:35.586Z,85.70
2019-04-20T09:20:09.657Z,85.90
2019-04-20T09:22:51.881Z,84.40
2019-04-20T09:28:11.555Z,85.50
2019-04-20T09:30:46.355Z,86.00
2019-04-20T09:33:48.504Z,87.00
2019-04-20T09:36:16.628Z,86.70
2019-04-20T09:38:59.851Z,85.90
2019-04-20T09:41:49.008Z,85.40
2019-04-20T09:43:58.256Z,84.10
2019-04-20T09:46:30.897Z,83.40
2019-04-20T09:49:02.690Z,83.00
2019-04-20T09:51:46.718Z,83.10
2019-04-20T09:54:21.969Z,83.90
2019-04-20T09:56:48.363Z,83.00
2019-04-20T09:59:18.893Z,81.30
2019-04-20T10:01:40.230Z,81.50
2019-04-20T10:04:01.774Z,81.70
2019-04-20T10:06:34.539Z,81.60
2019-04-20T10:09:03.874Z,81.70
2019-04-20T10:11:31.997Z,81.90
2019-04-20T10:14:01.991Z,81.70
2019-04-20T10:16:33.647Z,81.60
2019-04-20T10:19:02.781Z,82.20
2019-04-20T10:21:35.939Z,79.20
2019-04-20T10:24:06.222Z,78.50
2019-04-20T10:26:36.612Z,78.70
2019-04-20T10:29:05.756Z,79.40
2019-04-20T10:31:42.875Z,80.20
2019-04-20T10:34:09.488Z,76.50
2019-04-20T10:37:01.674Z,73.50
2019-04-20T10:39:31.252Z,73.90
2019-04-20T10:42:02.936Z,75.20
2019-04-20T10:44:30.857Z,74.00
2019-04-20T10:47:00.823Z,72.00
2019-04-20T10:49:31.189Z,71.50
2019-04-20T10:52:00.328Z,72.40
2019-04-20T10:54:30.253Z,72.40
2019-04-20T10:57:05.714Z,71.00
2019-04-20T10:59:34.841Z,68.10
2019-04-20T11:02:03.804Z,67.70
2019-04-20T11:04:32.880Z,67.90
2019-04-20T11:07:02.849Z,67.20
2019-04-20T11:09:32.472Z,67.40
2019-04-20T11:12:02.183Z,67.80
2019-04-20T11:14:36.370Z,67.40
2019-04-20T11:17:02.637Z,67.70
2019-04-20T11:19:31.696Z,67.70
2019-04-20T11:22:02.102Z,67.00
2019-04-20T11:24:32.276Z,67.40
2019-04-20T11:27:02.389Z,67.00
2019-04-20T11:29:31.887Z,67.10
2019-04-20T11:32:01.124Z,65.70
2019-04-20T11:34:34.910Z,65.50
2019-04-20T11:37:01.403Z,60.60
2019-04-20T11:39:30.448Z,62.90
2019-04-20T11:41:59.568Z,63.10
2019-04-20T11:44:31.443Z,60.60
2019-04-20T11:46:59.272Z,62.90
2019-04-20T11:49:28.247Z,62.70
2019-04-20T11:51:57.374Z,62.10
2019-04-20T11:54:26.432Z,61.90
2019-04-20T11:56:55.533Z,57.00
2019-04-20T11:59:25.389Z,54.00
2019-04-20T12:02:05.831Z,52.10
2019-04-20T12:04:45.687Z,52.60
2019-04-20T12:07:08.861Z,53.00
2019-04-20T12:09:38.060Z,53.30
2019-04-20T12:12:20.303Z,53.00
2019-04-20T12:14:38.786Z,51.50
2019-04-20T12:17:08.001Z,50.40
2019-04-20T12:19:37.896Z,49.50
2019-04-20T12:22:07.606Z,48.30
2019-04-20T12:24:36.660Z,48.20
2019-04-20T12:27:06.871Z,48.40
2019-04-20T12:29:35.991Z,49.40
2019-04-20T12:32:06.900Z,45.80
2019-04-20T12:34:35.583Z,46.30
2019-04-20T12:37:05.034Z,46.90
2019-04-20T12:39:35.257Z,46.40
2019-04-20T12:42:07.622Z,45.70
2019-04-20T12:44:35.506Z,45.30
2019-04-20T12:47:05.771Z,45.00
2019-04-20T12:49:35.724Z,46.80
2019-04-20T12:52:06.627Z,47.10
2019-04-20T12:54:36.898Z,46.80
2019-04-20T12:57:06.762Z,46.80
2019-04-20T12:59:35.846Z,47.30
2019-04-20T13:02:05.222Z,47.10
2019-04-20T13:04:35.282Z,47.50
2019-04-20T13:07:05.833Z,47.00
2019-04-20T13:09:40.887Z,47.60
2019-04-20T13:12:30.365Z,46.70
2019-04-20T13:15:36.326Z,47.70
2019-04-20T13:18:07.339Z,47.70
2019-04-20T13:20:36.576Z,47.80
2019-04-20T13:23:06.229Z,47.70
2019-04-20T13:25:37.035Z,47.30
2019-04-20T13:28:08.543Z,47.30
2019-04-20T13:30:37.625Z,47.40
2019-04-20T13:33:07.978Z,47.60
2019-04-20T13:35:38.290Z,48.90
2019-04-20T13:38:07.877Z,47.60
2019-04-20T13:40:37.687Z,46.10
2019-04-20T13:43:07.926Z,47.40
2019-04-20T13:45:37.204Z,46.10
2019-04-20T13:48:06.671Z,46.10
2019-04-20T13:50:36.039Z,46.30
2019-04-20T13:53:05.523Z,45.30
2019-04-20T13:55:35.633Z,46.00
2019-04-20T13:58:30.132Z,45.80
2019-04-20T14:01:19.060Z,45.10
2019-04-20T14:04:02.984Z,45.90
2019-04-20T14:06:33.113Z,46.70
2019-04-20T14:09:03.466Z,46.00
2019-04-20T14:11:33.549Z,47.10
2019-04-20T14:14:05.309Z,45.50
2019-04-20T14:16:33.261Z,45.70
2019-04-20T14:19:02.980Z,45.80
2019-04-20T14:21:32.174Z,45.30
2019-04-20T14:24:01.347Z,45.80
2019-04-20T14:26:30.711Z,45.80
2019-04-20T14:29:00.829Z,45.90
2019-04-20T14:31:30.049Z,45.70
2019-04-20T14:33:59.173Z,45.80
2019-04-20T14:36:28.846Z,46.10
2019-04-20T14:38:58.305Z,46.70
2019-04-20T14:41:28.457Z,46.30
2019-04-20T14:43:57.434Z,46.20
2019-04-20T14:46:27.855Z,46.60
2019-04-20T14:48:56.883Z,46.50
2019-04-20T14:51:25.835Z,46.80
2019-04-20T14:53:55.775Z,46.30
2019-04-20T14:56:25.254Z,46.40
2019-04-20T14:58:59.726Z,47.10
2019-04-20T15:01:38.698Z,46.70
2019-04-20T15:04:13.454Z,47.10
2019-04-20T15:06:39.887Z,46.80
2019-04-20T15:09:10.762Z,46.50
2019-04-20T15:11:41.715Z,45.90
2019-04-20T15:14:11.064Z,46.30
2019-04-20T15:16:40.408Z,46.60
2019-04-20T15:19:27.615Z,45.60
2019-04-20T15:21:58.126Z,45.80
2019-04-20T15:24:27.344Z,47.80
2019-04-20T15:26:56.556Z,46.50
2019-04-20T15:29:26.412Z,46.90
2019-04-20T15:31:56.510Z,46.40
2019-04-20T15:34:26.792Z,46.90
2019-04-20T15:36:56.037Z,46.00
2019-04-20T15:39:25.297Z,45.80
2019-04-20T15:41:54.352Z,45.80
2019-04-20T15:44:23.162Z,45.60
2019-04-20T15:46:53.167Z,46.00
2019-04-20T15:49:22.200Z,46.60
2019-04-20T15:51:52.127Z,46.50
2019-04-20T15:54:21.231Z,46.50
2019-04-20T15:56:56.990Z,46.60
2019-04-20T15:59:22.175Z,46.80
2019-04-20T16:01:55.561Z,45.70
2019-04-20T16:04:44.616Z,45.10
2019-04-20T16:07:15.044Z,44.00
2019-04-20T16:09:44.358Z,43.80
2019-04-20T16:12:13.262Z,43.00
2019-04-20T16:14:43.786Z,43.50
2019-04-20T16:17:12.891Z,43.70
2019-04-20T16:19:51.281Z,42.90
2019-04-20T16:22:15.518Z,42.90
2019-04-20T16:24:49.105Z,42.30
2019-04-20T16:27:41.452Z,42.40
2019-04-20T16:30:13.494Z,42.90
2019-04-20T16:32:42.812Z,43.10
2019-04-20T16:35:11.880Z,42.40
2019-04-20T16:37:40.713Z,42.50
2019-04-20T16:40:11.641Z,42.10
2019-04-20T16:42:42.222Z,42.40
2019-04-20T16:45:11.735Z,42.50
2019-04-20T16:47:42.028Z,42.50
2019-04-20T16:50:11.300Z,42.90
2019-04-20T16:52:41.078Z,42.90
2019-04-20T16:55:11.724Z,43.20
2019-04-20T16:57:41.688Z,43.00
2019-04-20T17:00:11.554Z,43.00
2019-04-20T17:02:40.554Z,43.30
2019-04-20T17:05:09.558Z,43.50
2019-04-20T17:07:42.678Z,44.00
2019-04-20T17:10:13.804Z,44.90
2019-04-20T17:12:46.047Z,45.60
2019-04-20T17:15:15.884Z,45.90
2019-04-20T17:17:46.774Z,46.30
2019-04-20T17:20:17.757Z,46.90
2019-04-20T17:22:46.837Z,47.20
2019-04-20T17:25:16.430Z,47.40
2019-04-20T17:28:08.757Z,47.60
2019-04-20T17:31:01.055Z,47.80
2019-04-20T17:33:58.868Z,47.80
2019-04-20T17:36:25.143Z,48.10
2019-04-20T17:38:54.925Z,48.10
2019-04-20T17:41:39.954Z,48.20
2019-04-20T17:44:10.019Z,48.20
2019-04-20T17:46:35.786Z,48.20
2019-04-20T17:49:08.919Z,48.50
2019-04-20T17:51:50.098Z,48.70
2019-04-20T17:54:21.827Z,48.90
2019-04-20T17:56:52.188Z,49.10
2019-04-20T17:59:22.227Z,49.30
2019-04-20T18:02:25.512Z,49.50
2019-04-20T18:05:12.694Z,49.50
2019-04-20T18:07:41.249Z,49.80
2019-04-20T18:10:09.818Z,49.90
2019-04-20T18:12:28.159Z,50.30
2019-04-20T18:15:06.499Z,51.00
2019-04-20T18:17:55.041Z,50.70
2019-04-20T18:20:18.915Z,50.80
2019-04-20T18:22:53.558Z,51.20
2019-04-20T18:25:38.155Z,51.30
2019-04-20T18:28:04.400Z,51.90
2019-04-20T18:30:43.657Z,52.00
2019-04-20T18:33:05.325Z,51.80
2019-04-20T18:35:40.516Z,51.70
2019-04-20T18:38:10.987Z,51.90
2019-04-20T18:40:44.512Z,52.30
2019-04-20T18:43:13.408Z,52.20
2019-04-20T18:49:51.381Z,52.10
2019-04-20T18:52:31.677Z,51.60
2019-04-20T18:55:30.189Z,51.30
2019-04-20T18:58:11.189Z,50.90
2019-04-20T19:00:59.511Z,50.70
2019-04-20T19:03:49.032Z,50.30
2019-04-20T19:06:31.799Z,50.90
2019-04-20T19:12:01.979Z,50.30
2019-04-20T19:15:02.437Z,50.20
2019-04-20T19:17:57.004Z,50.20
2019-04-20T19:20:29.015Z,50.10
2019-04-20T19:23:11.284Z,50.10
2019-04-20T19:28:42.227Z,50.30
2019-04-20T19:31:35.499Z,50.50
2019-04-20T19:34:22.741Z,50.40
2019-04-20T19:36:58.153Z,50.80
2019-04-20T19:39:38.528Z,50.80
2019-04-20T19:42:19.525Z,50.90
2019-04-20T19:45:06.582Z,51.20
2019-04-20T19:47:51.250Z,51.60
2019-04-20T19:53:24.115Z,51.90
2019-04-20T19:55:52.973Z,52.00
2019-04-20T19:58:34.387Z,52.10
2019-04-20T20:01:06.734Z,52.10
2019-04-20T20:03:54.757Z,52.60
2019-04-20T20:06:39.129Z,52.90
2019-04-20T20:09:16.067Z,53.20
2019-04-20T20:12:02.966Z,53.30
2019-04-20T20:14:42.965Z,53.50
2019-04-20T20:17:44.276Z,53.90
2019-04-20T20:20:28.732Z,54.00
2019-04-20T20:22:50.510Z,54.30
2019-04-20T20:25:35.663Z,54.60
2019-04-20T20:28:25.604Z,54.60
2019-04-20T20:31:04.425Z,55.00
2019-04-20T20:33:52.841Z,55.00
2019-04-20T20:36:21.741Z,55.50
2019-04-20T20:39:15.988Z,55.60
2019-04-20T20:42:12.896Z,55.90
2019-04-20T20:44:55.115Z,55.90
2019-04-20T20:47:54.958Z,55.80
2019-04-20T20:50:48.721Z,56.10
2019-04-20T20:56:01.901Z,56.40
2019-04-20T20:58:37.485Z,56.50
2019-04-20T21:01:20.291Z,56.40
2019-04-20T21:04:04.937Z,56.30
2019-04-20T21:06:54.897Z,56.30
2019-04-20T21:09:44.186Z,56.80
2019-04-20T21:12:36.438Z,56.80
2019-04-20T21:15:45.417Z,56.90
2019-04-20T21:18:47.539Z,57.20
2019-04-20T21:21:38.258Z,57.50
2019-04-20T21:24:30.692Z,57.70
2019-04-20T21:27:21.973Z,58.10
2019-04-20T21:30:16.817Z,58.50
2019-04-20T21:33:03.320Z,58.20
2019-04-20T21:35:51.741Z,58.20
2019-04-20T21:38:41.478Z,57.90
2019-04-20T21:41:29.470Z,58.00
2019-04-20T21:44:24.277Z,58.30
2019-04-20T21:47:09.142Z,58.30
2019-04-20T21:50:20.342Z,58.40
2019-04-20T21:52:53.313Z,58.50
2019-04-20T21:55:37.451Z,58.20
2019-04-20T21:58:07.305Z,58.40
2019-04-20T22:01:09.590Z,58.90
2019-04-20T22:03:48.023Z,58.90
2019-04-20T22:06:38.161Z,58.90
2019-04-20T22:09:20.334Z,59.00
2019-04-20T22:12:02.104Z,59.60
2019-04-20T22:14:43.941Z,59.80
2019-04-20T22:17:28.848Z,59.70
2019-04-20T22:20:20.104Z,60.00
2019-04-20T22:23:04.594Z,60.20
2019-04-20T22:25:48.977Z,61.20
2019-04-20T22:30:58.022Z,61.50
2019-04-20T22:33:41.361Z,61.80
2019-04-20T22:36:25.955Z,61.80
2019-04-20T22:42:14.955Z,61.60
2019-04-20T22:45:01.940Z,62.00
2019-04-20T22:47:39.173Z,61.50
2019-04-20T22:50:33.696Z,62.00
2019-04-20T22:53:21.666Z,62.10
2019-04-20T22:56:05.698Z,62.20
2019-04-20T22:58:46.034Z,62.80
2019-04-20T23:01:19.353Z,63.20
2019-04-20T23:03:52.945Z,63.70
2019-04-20T23:06:46.281Z,63.40
2019-04-20T23:09:24.763Z,63.30
2019-04-20T23:12:10.072Z,63.30
2019-04-20T23:14:50.190Z,64.00
2019-04-20T23:20:22.930Z,65.80
2019-04-20T23:22:56.841Z,66.30
2019-04-20T23:25:39.005Z,67.10
2019-04-20T23:28:22.447Z,67.80
2019-04-20T23:31:09.394Z,67.70
2019-04-20T23:33:45.710Z,68.40
2019-04-20T23:36:36.542Z,69.40
2019-04-20T23:39:10.781Z,69.30
2019-04-20T23:41:57.053Z,70.30
2019-04-20T23:44:45.850Z,70.90
2019-04-20T23:50:43.574Z,72.40
2019-04-20T23:53:19.472Z,73.00
2019-04-20T23:55:47.873Z,75.00
2019-04-20T23:58:30.934Z,75.50
